Time;durP1;ratioP1;P1;durP2;ratioP2;P2;SDS_P1;SDS_P2;PMS_P1;PMS_P2;Temp;Humidity;BMP_temperature;BMP_pressure;BME280_temperature;BME280_humidity;BME280_pressure;Samples;Min_cycle;Max_cycle;Signal;HPM_P1;HPM_P2
2023/08/25 00:01:30;;;;;;;9.23;5.60;;;;;;;25.45;51.01;99492.63;4356383;32;33576;-76
2023/08/25 00:03:58;;;;;;;4.40;2.95;;;;;;;25.31;51.30;99492.69;4358074;32;33886;-76
2023/08/25 00:06:25;;;;;;;7.32;4.00;;;;;;;25.31;51.27;99486.38;4351272;32;33347;-76
2023/08/25 00:08:53;;;;;;;7.43;4.50;;;;;;;25.30;51.26;99480.06;4354636;32;34899;-76
2023/08/25 00:11:21;;;;;;;6.50;4.57;;;;;;;25.26;51.33;99484.28;4349377;32;34121;-76
2023/08/25 00:13:49;;;;;;;11.73;4.47;;;;;;;25.33;51.16;99482.37;4349667;32;34295;-76
2023/08/25 00:16:16;;;;;;;6.62;4.40;;;;;;;25.23;51.43;99470.19;4357338;32;35021;-77
2023/08/25 00:18:45;;;;;;;9.15;3.70;;;;;;;25.27;51.33;99458.59;4353093;32;34721;-76
2023/08/25 00:21:15;;;;;;;10.07;4.57;;;;;;;25.35;51.24;99462.13;4347817;32;33864;-76
2023/08/25 00:23:42;;;;;;;8.32;4.90;;;;;;;25.40;51.37;99465.06;4356326;32;34568;-76
2023/08/25 00:26:10;;;;;;;9.45;4.22;;;;;;;25.42;51.33;99469.25;4361259;32;33505;-76
2023/08/25 00:28:38;;;;;;;5.95;3.85;;;;;;;25.46;51.29;99466.94;4359080;32;32864;-76
2023/08/25 00:31:07;;;;;;;6.70;4.03;;;;;;;25.49;51.14;99463.75;4360471;32;33753;-77
2023/08/25 00:33:35;;;;;;;5.85;4.53;;;;;;;25.44;51.28;99460.84;4359670;32;33599;-77
2023/08/25 00:36:03;;;;;;;7.15;4.30;;;;;;;25.33;51.33;99468.69;4359021;32;34264;-79
2023/08/25 00:38:30;;;;;;;9.23;4.75;;;;;;;25.36;50.99;99474.75;4358186;32;33911;-74
2023/08/25 00:41:00;;;;;;;9.32;4.57;;;;;;;25.33;50.98;99481.53;4358056;32;33658;-73
2023/08/25 00:43:27;;;;;;;8.43;4.22;;;;;;;25.32;51.02;99479.84;4357820;32;34263;-73
2023/08/25 00:45:55;;;;;;;7.97;4.62;;;;;;;25.39;51.04;99479.81;4354726;32;34718;-72
2023/08/25 00:48:23;;;;;;;9.57;4.90;;;;;;;25.45;50.90;99479.78;4358933;32;33638;-74
2023/08/25 00:50:51;;;;;;;8.73;5.25;;;;;;;25.51;50.74;99481.66;4359041;32;33647;-73
2023/08/25 00:53:20;;;;;;;6.07;3.55;;;;;;;25.49;50.90;99481.03;4356648;32;34084;-74
2023/08/25 00:55:48;;;;;;;9.25;4.65;;;;;;;25.55;50.83;99476.56;4344977;32;33015;-74
2023/08/25 00:58:16;;;;;;;6.12;3.90;;;;;;;25.47;51.15;99471.34;4353437;32;33414;-74
2023/08/25 01:00:45;;;;;;;10.63;6.53;;;;;;;25.14;52.02;99455.91;4358069;32;34967;-73
2023/08/25 01:03:13;;;;;;;9.65;4.00;;;;;;;25.32;51.51;99446.97;4360460;32;33755;-74
2023/08/25 01:05:40;;;;;;;8.55;4.68;;;;;;;25.32;51.61;99444.22;4351984;32;33895;-73
2023/08/25 01:08:08;;;;;;;9.27;4.30;;;;;;;25.21;51.82;99445.75;4356825;32;34928;-73
2023/08/25 01:10:55;;;;;;;11.88;4.90;;;;;;;25.30;51.54;99440.88;4358649;32;34966;-76
2023/08/25 01:13:40;;;;;;;7.95;4.57;;;;;;;25.30;51.62;99433.50;4344059;32;34293;-76
2023/08/25 01:16:09;;;;;;;6.05;4.22;;;;;;;25.26;52.07;99437.72;4337124;32;34021;-76
2023/08/25 01:18:40;;;;;;;6.20;4.32;;;;;;;25.35;51.85;99435.56;4339913;32;33600;-75
2023/08/25 01:21:08;;;;;;;6.53;4.68;;;;;;;25.40;51.88;99441.25;4327330;33;35191;-76
2023/08/25 01:23:47;;;;;;;8.05;4.22;;;;;;;25.47;51.60;99433.00;4322327;32;35083;-76
2023/08/25 01:26:15;;;;;;;7.75;3.75;;;;;;;25.45;51.65;99441.41;4340829;32;33091;-75
2023/08/25 01:28:42;;;;;;;8.82;4.22;;;;;;;25.37;51.73;99436.22;4339073;32;34641;-76
2023/08/25 01:31:10;;;;;;;8.98;5.43;;;;;;;25.29;51.86;99429.06;4341775;32;34827;-75
2023/08/25 01:33:44;;;;;;;7.57;4.75;;;;;;;25.27;51.87;99439.41;4338732;32;36641;-74
2023/08/25 01:36:25;;;;;;;9.35;5.12;;;;;;;25.28;51.74;99452.03;4327010;33;31790;-74
2023/08/25 01:39:08;;;;;;;9.77;5.50;;;;;;;25.26;51.91;99458.78;4338114;32;33498;-74
2023/08/25 01:41:40;;;;;;;7.72;3.78;;;;;;;25.26;52.01;99462.38;4340398;33;34323;-74
2023/08/25 01:44:09;;;;;;;7.28;5.15;;;;;;;25.23;52.06;99459.22;4338962;33;33749;-74
2023/08/25 01:46:37;;;;;;;7.50;4.10;;;;;;;25.06;52.11;99448.72;4340704;32;34296;-74
2023/08/25 01:49:06;;;;;;;8.38;5.15;;;;;;;25.11;51.97;99442.63;4344185;32;33319;-75
2023/08/25 01:51:34;;;;;;;8.18;5.10;;;;;;;25.13;51.83;99437.78;4354491;32;33566;-71
2023/08/25 01:54:01;;;;;;;8.80;4.55;;;;;;;25.09;51.77;99434.59;4358022;32;34916;-72
2023/08/25 01:56:29;;;;;;;7.90;5.12;;;;;;;25.16;51.54;99436.50;4359184;32;34824;-72
2023/08/25 01:58:57;;;;;;;8.40;5.43;;;;;;;25.17;51.58;99419.00;4357579;32;33550;-74
2023/08/25 02:01:25;;;;;;;7.75;4.75;;;;;;;25.10;52.05;99414.41;4359235;32;34310;-74
2023/08/25 02:03:54;;;;;;;10.43;4.85;;;;;;;25.20;51.83;99416.69;4351138;32;34827;-74
2023/08/25 02:06:21;;;;;;;9.38;5.18;;;;;;;25.18;51.86;99413.34;4357767;32;34075;-73
2023/08/25 02:08:49;;;;;;;7.53;4.80;;;;;;;25.17;52.01;99402.56;4358956;32;33591;-73
2023/08/25 02:11:17;;;;;;;9.15;4.30;;;;;;;25.19;52.04;99404.06;4358408;32;34186;-73
2023/08/25 02:13:45;;;;;;;7.37;4.47;;;;;;;25.20;52.16;99396.66;4357598;32;33715;-74
2023/08/25 02:16:12;;;;;;;7.62;4.60;;;;;;;25.22;52.22;99391.81;4352407;32;34493;-75
2023/08/25 02:18:40;;;;;;;9.82;4.35;;;;;;;25.18;52.29;99387.84;4358391;32;33511;-74
2023/08/25 02:21:08;;;;;;;7.12;3.58;;;;;;;25.14;52.59;99387.44;4356228;32;34016;-77
2023/08/25 02:23:36;;;;;;;9.40;3.75;;;;;;;25.16;52.69;99382.56;4357195;32;34310;-74
2023/08/25 02:26:04;;;;;;;8.73;4.45;;;;;;;25.13;52.88;99380.28;4353598;32;33198;-74
2023/08/25 02:28:31;;;;;;;8.98;4.97;;;;;;;25.04;53.12;99381.53;4355824;32;33252;-74
2023/08/25 02:30:59;;;;;;;7.37;4.28;;;;;;;25.12;52.95;99378.59;4358365;32;33635;-74
2023/08/25 02:33:26;;;;;;;11.45;5.72;;;;;;;25.14;52.88;99383.87;4358094;32;33639;-74
2023/08/25 02:35:54;;;;;;;9.77;5.07;;;;;;;25.10;53.09;99386.16;4359532;32;33276;-74
2023/08/25 02:38:22;;;;;;;11.10;5.45;;;;;;;25.09;53.23;99393.53;4353959;32;33375;-74
2023/08/25 02:40:50;;;;;;;6.90;4.03;;;;;;;25.10;53.37;99400.72;4360475;32;33673;-74
2023/08/25 02:43:18;;;;;;;7.60;5.20;;;;;;;25.07;53.29;99395.66;4359035;32;33870;-74
2023/08/25 02:45:45;;;;;;;6.70;4.25;;;;;;;25.04;52.87;99381.53;4357791;32;33077;-74
2023/08/25 02:48:14;;;;;;;7.68;4.68;;;;;;;25.08;52.66;99375.44;4354488;32;33623;-74
2023/08/25 02:50:42;;;;;;;6.30;4.30;;;;;;;25.05;52.78;99375.87;4340899;32;32784;-75
2023/08/25 02:53:10;;;;;;;16.45;4.22;;;;;;;25.07;52.81;99395.66;4355813;32;33919;-75
2023/08/25 02:55:38;;;;;;;9.07;6.00;;;;;;;25.08;52.92;99408.28;4357719;32;33699;-74
2023/08/25 02:58:05;;;;;;;14.20;5.87;;;;;;;25.04;53.07;99420.75;4356512;32;33726;-75
2023/08/25 03:00:33;;;;;;;6.50;4.07;;;;;;;25.03;53.04;99434.63;4358485;32;34272;-74
2023/08/25 03:03:01;;;;;;;9.10;4.80;;;;;;;25.02;52.80;99435.69;4350633;32;33841;-75
2023/08/25 03:05:28;;;;;;;5.57;3.83;;;;;;;24.93;52.80;99434.25;4357019;32;33246;-75
2023/08/25 03:07:56;;;;;;;11.10;5.20;;;;;;;24.93;52.70;99447.94;4357866;32;34734;-74
2023/08/25 03:10:24;;;;;;;10.10;5.35;;;;;;;24.96;52.82;99444.78;4356333;32;33987;-72
2023/08/25 03:12:52;;;;;;;6.60;4.30;;;;;;;25.01;53.00;99445.81;4355603;32;33915;-75
2023/08/25 03:15:21;;;;;;;12.90;4.72;;;;;;;25.06;52.77;99445.16;4355831;32;33460;-78
2023/08/25 03:17:48;;;;;;;8.93;4.72;;;;;;;25.07;53.01;99453.16;4352420;32;34731;-78
2023/08/25 03:20:16;;;;;;;7.43;3.85;;;;;;;25.12;53.13;99449.78;4345015;32;34799;-72
2023/08/25 03:22:44;;;;;;;10.50;3.78;;;;;;;25.15;53.08;99468.53;4358022;32;33772;-72
2023/08/25 03:25:12;;;;;;;8.38;4.03;;;;;;;25.18;53.11;99470.84;4352628;32;33621;-75
2023/08/25 03:27:39;;;;;;;6.45;3.80;;;;;;;25.20;53.22;99468.75;4356142;32;32448;-75
2023/08/25 03:30:08;;;;;;;6.18;3.67;;;;;;;25.24;53.15;99471.88;4355139;32;35053;-74
2023/08/25 03:32:35;;;;;;;6.97;4.65;;;;;;;25.22;53.20;99469.34;4350799;32;33807;-75
2023/08/25 03:35:03;;;;;;;8.55;4.57;;;;;;;25.22;53.41;99490.41;4353535;32;34638;-75
2023/08/25 03:37:31;;;;;;;16.87;5.62;;;;;;;25.25;53.58;99493.56;4359285;32;34691;-75
2023/08/25 03:40:03;;;;;;;13.00;5.60;;;;;;;25.22;53.70;99493.16;4359122;32;34051;-74
2023/08/25 03:42:31;;;;;;;8.18;5.50;;;;;;;25.08;53.91;99514.25;4359208;32;34409;-74
2023/08/25 03:44:59;;;;;;;7.37;4.90;;;;;;;25.03;53.99;99514.88;4355819;32;34054;-73
2023/08/25 03:47:26;;;;;;;11.68;5.30;;;;;;;25.13;53.38;99508.13;4359113;32;33966;-71
2023/08/25 03:49:54;;;;;;;15.93;5.03;;;;;;;25.13;53.45;99573.84;4357908;32;34020;-76
2023/08/25 03:52:22;;;;;;;8.70;5.62;;;;;;;23.81;57.38;99602.69;4357321;32;33543;-76
2023/08/25 03:54:49;;;;;;;7.72;4.55;;;;;;;23.88;56.37;99568.00;4346233;32;32307;-74
2023/08/25 03:57:17;;;;;;;10.63;6.10;;;;;;;24.52;54.20;99563.97;4356031;32;34025;-76
2023/08/25 03:59:46;;;;;;;9.60;5.57;;;;;;;24.89;53.16;99546.06;4357351;32;33715;-73
2023/08/25 04:02:13;;;;;;;7.28;4.43;;;;;;;25.17;52.45;99525.81;4348633;32;32789;-72
2023/08/25 04:04:41;;;;;;;7.80;4.30;;;;;;;24.97;52.91;99531.31;4351748;32;34445;-73
2023/08/25 04:07:09;;;;;;;10.88;5.50;;;;;;;25.42;52.10;99537.75;4350825;32;32363;-72
2023/08/25 04:09:36;;;;;;;11.43;6.28;;;;;;;25.57;51.81;99521.03;4351628;32;33681;-72
2023/08/25 04:12:05;;;;;;;8.35;5.75;;;;;;;25.74;51.41;99515.91;4351193;32;32291;-71
2023/08/25 04:14:32;;;;;;;8.48;5.22;;;;;;;25.84;51.24;99508.06;4352067;32;33789;-71
2023/08/25 04:17:00;;;;;;;13.40;6.20;;;;;;;25.93;50.99;99503.19;4358279;32;35034;-76
2023/08/25 04:19:28;;;;;;;7.30;4.93;;;;;;;25.98;50.85;99503.38;4360623;32;34150;-72
2023/08/25 04:21:56;;;;;;;8.07;4.90;;;;;;;26.03;50.75;99489.81;4365266;32;33868;-74
2023/08/25 04:24:24;;;;;;;11.88;6.18;;;;;;;26.08;50.52;99473.53;4349061;32;33308;-74
2023/08/25 04:26:53;;;;;;;8.90;5.82;;;;;;;26.00;50.72;99454.59;4353148;32;34119;-78
2023/08/25 04:29:21;;;;;;;10.43;7.87;;;;;;;26.13;50.12;99449.06;4354429;32;34864;-76
2023/08/25 04:31:49;;;;;;;13.35;6.15;;;;;;;26.07;50.27;99440.84;4350989;32;33898;-76
2023/08/25 04:34:17;;;;;;;10.05;6.90;;;;;;;26.10;50.19;99437.66;4349891;32;33921;-76
2023/08/25 04:36:45;;;;;;;7.85;5.90;;;;;;;25.98;50.39;99454.00;4352039;32;33538;-76
2023/08/25 04:39:16;;;;;;;8.60;5.47;;;;;;;25.99;50.12;99447.44;4352374;32;35381;-76
2023/08/25 04:41:44;;;;;;;10.45;6.05;;;;;;;25.75;50.87;99449.91;4352194;32;33596;-76
2023/08/25 04:44:11;;;;;;;17.77;6.25;;;;;;;25.99;50.20;99452.94;4351904;32;33480;-76
2023/08/25 04:46:39;;;;;;;9.25;5.45;;;;;;;26.09;50.13;99455.19;4350321;32;33443;-75
2023/08/25 04:49:09;;;;;;;12.20;6.80;;;;;;;26.13;50.11;99446.31;4354641;32;33753;-74
2023/08/25 04:51:37;;;;;;;11.45;6.53;;;;;;;26.15;50.25;99435.94;4351715;32;34825;-74
2023/08/25 04:54:04;;;;;;;10.35;6.12;;;;;;;26.26;49.98;99417.94;4351616;32;35766;-73
2023/08/25 04:56:33;;;;;;;7.45;4.60;;;;;;;26.29;49.82;99414.69;4352127;32;34475;-74
2023/08/25 04:59:00;;;;;;;10.52;5.37;;;;;;;26.34;49.55;99411.31;4352565;32;34086;-73
2023/08/25 05:01:28;;;;;;;12.23;5.45;;;;;;;26.34;49.62;99394.84;4351575;32;33997;-74
2023/08/25 05:03:56;;;;;;;8.68;5.43;;;;;;;26.34;49.63;99383.87;4351959;32;32304;-74
2023/08/25 05:06:24;;;;;;;11.15;6.35;;;;;;;26.38;49.56;99374.94;4349928;32;33929;-74
2023/08/25 05:08:54;;;;;;;7.87;4.82;;;;;;;26.41;49.42;99357.19;4349332;32;34587;-74
2023/08/25 05:11:22;;;;;;;9.05;4.37;;;;;;;26.40;49.45;99361.84;4351044;32;34908;-72
2023/08/25 05:13:50;;;;;;;13.70;5.60;;;;;;;26.42;49.50;99386.31;4351703;32;33766;-72
2023/08/25 05:16:19;;;;;;;15.57;7.60;;;;;;;26.37;50.19;99417.16;4350926;32;35066;-73
2023/08/25 05:18:47;;;;;;;13.30;7.43;;;;;;;26.00;51.74;99429.94;4357723;32;33995;-74
2023/08/25 05:21:15;;;;;;;8.25;4.60;;;;;;;26.22;51.57;99422.16;4353687;32;33682;-73
2023/08/25 05:23:47;;;;;;;12.65;7.82;;;;;;;26.06;52.61;99409.00;4350885;32;33758;-73
2023/08/25 05:26:15;;;;;;;8.38;5.70;;;;;;;25.73;54.36;99421.03;4349691;32;33266;-73
2023/08/25 05:28:44;;;;;;;7.97;5.45;;;;;;;25.98;53.84;99407.41;4351478;32;32622;-73
2023/08/25 05:31:11;;;;;;;12.88;8.20;;;;;;;26.15;53.77;99383.81;4349321;32;34002;-73
2023/08/25 05:33:42;;;;;;;15.77;6.68;;;;;;;26.09;54.36;99372.91;4355864;32;33356;-72
2023/08/25 05:36:10;;;;;;;16.20;8.85;;;;;;;26.16;54.28;99357.22;4356594;32;34626;-73
2023/08/25 05:38:37;;;;;;;11.90;7.30;;;;;;;26.06;54.92;99357.75;4355357;32;33941;-74
2023/08/25 05:41:05;;;;;;;11.68;5.95;;;;;;;25.84;55.98;99360.03;4358269;32;34132;-74
2023/08/25 05:43:33;;;;;;;18.45;10.05;;;;;;;25.38;57.52;99365.81;4356143;32;34798;-73
2023/08/25 05:46:00;;;;;;;13.50;6.00;;;;;;;25.28;58.01;99369.88;4354978;32;35562;-73
2023/08/25 05:48:28;;;;;;;12.65;7.00;;;;;;;25.38;57.61;99376.78;4351759;32;33704;-74
2023/08/25 05:50:56;;;;;;;8.52;4.80;;;;;;;25.50;57.12;99394.19;4352198;32;34114;-73
2023/08/25 05:53:24;;;;;;;9.45;4.57;;;;;;;25.61;56.56;99395.38;4351468;32;33489;-73
2023/08/25 05:55:51;;;;;;;7.95;5.28;;;;;;;25.59;56.77;99401.09;4352841;32;35454;-73
2023/08/25 05:58:19;;;;;;;10.57;6.40;;;;;;;25.71;56.61;99407.53;4355334;32;34361;-73
2023/08/25 06:00:47;;;;;;;11.80;6.37;;;;;;;25.59;57.81;99419.44;4351944;32;33879;-73
2023/08/25 06:03:16;;;;;;;14.63;6.75;;;;;;;25.71;57.67;99414.91;4351858;32;33606;-73
2023/08/25 06:05:46;;;;;;;10.98;6.05;;;;;;;25.66;58.42;99429.31;4348183;32;33209;-73
2023/08/25 06:08:14;;;;;;;12.82;7.30;;;;;;;25.74;58.11;99418.06;4354097;32;35054;-73
2023/08/25 06:10:41;;;;;;;13.45;7.60;;;;;;;25.53;58.66;99419.25;4352916;32;33894;-73
2023/08/25 06:13:09;;;;;;;14.90;6.85;;;;;;;25.83;58.18;99423.31;4352733;32;34225;-72
2023/08/25 06:15:37;;;;;;;14.35;6.72;;;;;;;25.86;58.51;99426.44;4352705;32;35119;-73
2023/08/25 06:18:05;;;;;;;12.23;7.57;;;;;;;25.82;57.96;99424.38;4356531;32;33796;-73
2023/08/25 06:20:32;;;;;;;10.88;7.62;;;;;;;25.65;58.06;99424.91;4355739;32;34855;-73
2023/08/25 06:23:00;;;;;;;12.43;7.00;;;;;;;25.88;57.90;99418.03;4355994;32;34428;-73
2023/08/25 06:25:28;;;;;;;10.63;5.65;;;;;;;25.96;58.52;99415.81;4355114;32;33532;-73
2023/08/25 06:27:55;;;;;;;21.02;7.35;;;;;;;26.02;58.56;99419.59;4356837;32;34022;-72
2023/08/25 06:30:25;;;;;;;10.82;6.47;;;;;;;26.09;58.41;99420.38;4350460;32;35090;-73
2023/08/25 06:32:53;;;;;;;14.52;9.93;;;;;;;26.19;58.25;99417.94;4354540;32;35322;-73
2023/08/25 06:35:21;;;;;;;10.80;7.07;;;;;;;26.17;58.04;99422.00;4352748;32;33572;-73
2023/08/25 06:37:49;;;;;;;11.57;7.03;;;;;;;26.18;57.82;99405.31;4350071;32;33688;-73
2023/08/25 06:40:17;;;;;;;10.98;7.40;;;;;;;26.29;57.54;99405.63;4351260;32;33354;-73
2023/08/25 06:42:45;;;;;;;10.48;7.32;;;;;;;26.33;57.08;99404.97;4359076;32;32973;-73
2023/08/25 06:45:13;;;;;;;17.40;8.73;;;;;;;26.41;57.15;99412.06;4354348;32;33563;-73
2023/08/25 06:47:42;;;;;;;13.13;6.97;;;;;;;26.44;57.44;99412.47;4357111;32;35608;-73
2023/08/25 06:50:10;;;;;;;14.48;6.75;;;;;;;26.62;57.29;99419.09;4352652;32;33838;-73
2023/08/25 06:52:37;;;;;;;12.95;7.00;;;;;;;26.64;57.41;99417.78;4351640;32;32326;-73
2023/08/25 06:55:06;;;;;;;9.55;7.05;;;;;;;26.69;55.98;99414.34;4353666;32;33809;-73
2023/08/25 06:57:34;;;;;;;12.73;7.10;;;;;;;26.74;54.74;99417.25;4354814;32;34947;-73
2023/08/25 07:00:04;;;;;;;11.27;7.30;;;;;;;26.85;54.83;99407.44;4319305;33;34310;-72
2023/08/25 07:02:32;;;;;;;13.15;6.65;;;;;;;27.02;54.36;99405.72;4323435;33;34214;-74
2023/08/25 07:05:00;;;;;;;11.77;7.25;;;;;;;26.91;53.21;99417.50;4327039;33;34889;-74
2023/08/25 07:07:28;;;;;;;15.50;7.55;;;;;;;27.05;53.05;99423.66;4327484;33;33997;-73
2023/08/25 07:09:55;;;;;;;12.75;8.25;;;;;;;27.12;52.85;99425.25;4320117;33;33648;-73
2023/08/25 07:12:23;;;;;;;12.40;7.28;;;;;;;27.16;53.08;99412.78;4319440;33;33655;-73
2023/08/25 07:14:52;;;;;;;14.57;8.57;;;;;;;27.29;53.20;99421.94;4321552;33;33492;-73
2023/08/25 07:17:20;;;;;;;14.05;8.65;;;;;;;27.18;52.55;99431.75;4323518;33;33542;-73
2023/08/25 07:19:48;;;;;;;9.98;7.10;;;;;;;27.24;52.88;99427.28;4319882;33;33774;-73
2023/08/25 07:22:15;;;;;;;12.30;8.48;;;;;;;27.31;52.72;99436.25;4321492;33;33304;-73
2023/08/25 07:24:43;;;;;;;11.70;7.45;;;;;;;27.45;52.86;99439.66;4319224;33;34595;-72
2023/08/25 07:27:11;;;;;;;11.55;7.90;;;;;;;27.60;52.84;99443.66;4317170;33;33743;-72
2023/08/25 07:29:38;;;;;;;16.95;8.10;;;;;;;27.64;52.76;99439.41;4324830;33;34242;-74
2023/08/25 07:32:06;;;;;;;19.67;8.32;;;;;;;27.69;52.41;99443.34;4345836;32;34980;-75
2023/08/25 07:34:34;;;;;;;14.50;7.95;;;;;;;27.76;52.25;99441.34;4353597;32;33857;-75
2023/08/25 07:37:01;;;;;;;12.68;8.90;;;;;;;27.74;53.35;99446.25;4355904;32;35022;-74
2023/08/25 07:39:29;;;;;;;10.23;6.78;;;;;;;27.94;53.23;99455.06;4350158;32;34057;-75
2023/08/25 07:41:57;;;;;;;11.65;7.68;;;;;;;28.05;52.60;99454.25;4350828;32;33362;-74
2023/08/25 07:44:25;;;;;;;11.65;7.12;;;;;;;28.10;52.20;99448.88;4350693;32;34397;-73
2023/08/25 07:46:52;;;;;;;15.00;10.02;;;;;;;28.12;51.87;99437.63;4353446;32;33828;-74
2023/08/25 07:49:20;;;;;;;11.23;7.40;;;;;;;28.18;51.74;99427.59;4357105;32;33744;-74
2023/08/25 07:51:48;;;;;;;13.40;7.90;;;;;;;28.34;51.25;99426.91;4352751;32;33384;-73
2023/08/25 07:54:15;;;;;;;12.07;7.15;;;;;;;28.51;49.93;99414.13;4351063;32;34822;-72
2023/08/25 07:56:43;;;;;;;10.23;6.87;;;;;;;28.63;50.32;99413.28;4351578;32;35531;-75
2023/08/25 07:59:10;;;;;;;12.95;7.60;;;;;;;28.67;49.51;99408.97;4352132;32;33831;-74
2023/08/25 08:01:38;;;;;;;9.45;6.15;;;;;;;28.64;49.79;99412.22;4352193;32;31898;-75
2023/08/25 08:04:07;;;;;;;16.33;8.35;;;;;;;28.79;49.68;99405.09;4350750;32;34686;-75
2023/08/25 08:06:35;;;;;;;13.10;8.05;;;;;;;28.93;49.18;99410.38;4353104;32;35190;-73
2023/08/25 08:09:03;;;;;;;11.12;5.95;;;;;;;28.91;50.02;99404.28;4353083;32;33917;-73
2023/08/25 08:11:31;;;;;;;13.65;9.00;;;;;;;28.90;49.97;99408.94;4350954;32;33377;-74
2023/08/25 08:13:59;;;;;;;9.15;6.07;;;;;;;28.88;49.81;99400.06;4349222;32;33610;-75
2023/08/25 08:16:27;;;;;;;9.82;5.75;;;;;;;28.88;49.30;99405.59;4351661;32;32926;-72
2023/08/25 08:18:55;;;;;;;10.45;7.70;;;;;;;29.01;49.27;99393.50;4357282;32;33453;-71
2023/08/25 08:21:23;;;;;;;9.50;6.40;;;;;;;29.04;48.65;99403.19;4351199;32;33337;-72
2023/08/25 08:23:50;;;;;;;12.15;5.50;;;;;;;29.09;48.61;99408.81;4351790;32;33797;-74
2023/08/25 08:26:18;;;;;;;10.57;6.65;;;;;;;29.05;48.64;99407.63;4352922;32;33811;-73
2023/08/25 08:28:46;;;;;;;10.32;5.78;;;;;;;29.12;48.17;99403.66;4349114;32;33117;-73
2023/08/25 08:31:18;;;;;;;7.95;4.90;;;;;;;29.20;48.33;99405.19;4352459;32;33671;-72
2023/08/25 08:33:49;;;;;;;15.10;5.70;;;;;;;28.90;48.29;99403.44;4352170;32;34326;-73
2023/08/25 08:36:17;;;;;;;8.80;5.68;;;;;;;29.19;48.46;99407.09;4351479;32;32532;-72
2023/08/25 08:38:44;;;;;;;10.77;5.15;;;;;;;29.12;48.65;99409.16;4351519;32;32805;-73
2023/08/25 08:41:15;;;;;;;13.88;6.53;;;;;;;29.28;48.24;99403.94;4352874;32;33126;-74
2023/08/25 08:43:45;;;;;;;10.07;5.40;;;;;;;29.22;47.79;99392.84;4350774;32;34045;-71
2023/08/25 08:46:17;;;;;;;9.00;5.28;;;;;;;29.65;46.94;99398.91;4353619;32;33850;-71
2023/08/25 08:48:45;;;;;;;10.32;4.53;;;;;;;29.74;46.70;99400.19;4342985;32;34334;-71
2023/08/25 08:51:14;;;;;;;7.47;4.35;;;;;;;29.84;46.68;99405.87;4360466;32;33733;-71
2023/08/25 08:53:42;;;;;;;10.05;5.32;;;;;;;29.91;47.05;99406.53;4360995;32;34959;-74
2023/08/25 08:56:10;;;;;;;9.57;5.45;;;;;;;29.74;46.53;99413.97;4358768;32;33990;-73
2023/08/25 08:58:38;;;;;;;6.65;4.25;;;;;;;29.84;45.55;99414.16;4355258;32;33533;-72
2023/08/25 09:01:05;;;;;;;7.85;4.82;;;;;;;29.88;46.18;99409.81;4353584;32;32905;-72
2023/08/25 09:03:36;;;;;;;7.65;4.45;;;;;;;29.94;45.95;99414.31;4338553;32;34510;-73
2023/08/25 09:06:05;;;;;;;7.40;4.57;;;;;;;29.85;46.93;99406.72;4349488;32;33892;-75
2023/08/25 09:08:33;;;;;;;8.35;4.32;;;;;;;29.79;46.34;99399.41;4348436;32;32950;-75
2023/08/25 09:11:03;;;;;;;10.48;6.00;;;;;;;30.03;45.76;99406.47;4353204;32;32282;-74
2023/08/25 09:13:33;;;;;;;9.82;4.97;;;;;;;30.07;45.37;99404.06;4352548;32;34982;-74
2023/08/25 09:16:11;;;;;;;8.90;5.25;;;;;;;29.88;45.53;99408.97;4307956;33;34893;-74
2023/08/25 09:18:39;;;;;;;8.95;5.93;;;;;;;30.12;46.50;99404.97;4310961;33;32616;-72
2023/08/25 09:21:18;;;;;;;7.55;4.62;;;;;;;30.21;46.29;99397.16;4311682;33;33310;-72
2023/08/25 09:23:53;;;;;;;8.05;5.53;;;;;;;30.35;46.03;99389.34;4310608;33;34669;-72
2023/08/25 09:26:20;;;;;;;9.27;5.28;;;;;;;30.53;44.72;99394.59;4311685;33;35805;-72
2023/08/25 09:28:54;;;;;;;9.45;5.10;;;;;;;30.47;45.89;99392.88;4310013;33;33405;-72
2023/08/25 09:31:28;;;;;;;8.80;4.57;;;;;;;30.96;44.26;99390.25;4309464;33;33637;-73
2023/08/25 09:34:04;;;;;;;9.13;5.05;;;;;;;31.12;44.23;99390.44;4312409;33;33478;-73
2023/08/25 09:36:32;;;;;;;9.45;5.10;;;;;;;31.26;43.02;99395.28;4313064;33;33792;-73
2023/08/25 09:39:00;;;;;;;13.48;5.57;;;;;;;31.37;42.79;99389.94;4308920;33;34030;-74
2023/08/25 09:41:34;;;;;;;9.20;4.43;;;;;;;31.39;43.00;99387.72;4312279;33;33260;-73
2023/08/25 09:44:02;;;;;;;9.02;4.15;;;;;;;31.06;42.56;99390.38;4308068;33;32746;-70
2023/08/25 09:46:31;;;;;;;7.35;3.87;;;;;;;31.38;42.23;99394.38;4316436;32;34411;-72
2023/08/25 09:49:04;;;;;;;7.93;4.32;;;;;;;31.62;40.81;99392.13;4350386;32;33896;-72
2023/08/25 09:51:39;;;;;;;7.82;4.70;;;;;;;31.51;41.46;99394.78;4306214;33;34164;-73
2023/08/25 09:54:15;;;;;;;8.18;3.65;;;;;;;31.49;40.68;99391.47;4306615;33;33263;-73
2023/08/25 09:56:45;;;;;;;6.57;3.30;;;;;;;31.68;39.36;99389.13;4290593;33;34223;-73
2023/08/25 09:59:13;;;;;;;7.50;3.83;;;;;;;31.77;38.25;99383.97;4293411;33;34315;-74
2023/08/25 10:01:43;;;;;;;6.47;3.47;;;;;;;31.70;39.85;99380.59;4292850;33;32708;-73
2023/08/25 10:04:12;;;;;;;5.95;3.35;;;;;;;31.53;40.12;99375.19;4291571;33;34087;-74
2023/08/25 10:06:40;;;;;;;6.78;3.47;;;;;;;32.05;39.89;99373.75;4289602;33;34010;-73
2023/08/25 10:09:08;;;;;;;8.18;3.83;;;;;;;32.17;38.13;99366.09;4292102;33;36175;-73
2023/08/25 10:11:41;;;;;;;14.18;3.30;;;;;;;32.49;38.86;99374.38;4290413;33;33634;-72
2023/08/25 10:14:12;;;;;;;8.07;3.25;;;;;;;32.64;37.60;99368.06;4294131;33;34941;-72
2023/08/25 10:16:49;;;;;;;8.73;2.67;;;;;;;32.47;37.53;99369.06;4290286;33;33887;-72
2023/08/25 10:19:23;;;;;;;6.25;3.10;;;;;;;32.58;36.35;99369.97;4291539;33;34333;-71
2023/08/25 10:21:52;;;;;;;8.05;3.55;;;;;;;32.97;36.14;99366.03;4298061;33;33474;-74
2023/08/25 10:24:21;;;;;;;6.43;3.00;;;;;;;33.01;37.40;99364.41;4335208;32;34009;-72
2023/08/25 10:26:51;;;;;;;5.93;2.65;;;;;;;33.42;37.21;99367.28;4334805;32;33818;-73
2023/08/25 10:29:21;;;;;;;5.00;2.58;;;;;;;33.52;33.31;99365.41;4352201;32;34860;-72
2023/08/25 10:31:58;;;;;;;4.82;2.40;;;;;;;33.71;34.68;99365.72;4349497;32;33416;-73
2023/08/25 10:34:35;;;;;;;5.70;2.35;;;;;;;33.78;32.61;99357.94;4349327;32;34086;-73
2023/08/25 10:37:07;;;;;;;6.55;3.00;;;;;;;33.73;34.23;99368.19;4349599;32;33804;-71
2023/08/25 10:40:08;;;;;;;6.70;2.53;;;;;;;34.06;33.30;99370.47;4350358;32;32371;-72
2023/08/25 10:42:36;;;;;;;8.18;2.83;;;;;;;33.96;33.49;99367.63;4292931;33;34293;-72
2023/08/25 10:45:07;;;;;;;6.43;2.90;;;;;;;34.08;34.09;99371.00;4295438;33;32578;-72
2023/08/25 10:47:47;;;;;;;5.93;2.95;;;;;;;34.28;34.21;99367.38;4294022;33;32844;-75
2023/08/25 10:50:19;;;;;;;6.85;3.08;;;;;;;34.42;33.24;99370.41;4300232;33;35638;-73
2023/08/25 10:52:50;;;;;;;5.65;2.53;;;;;;;34.29;33.39;99363.50;4297938;33;33067;-73
2023/08/25 10:55:32;;;;;;;7.72;3.22;;;;;;;33.78;33.96;99368.22;4302834;33;32467;-72
2023/08/25 10:58:01;;;;;;;8.25;2.95;;;;;;;34.38;33.08;99363.75;4294547;33;33723;-72
2023/08/25 11:00:36;;;;;;;7.90;3.30;;;;;;;34.46;33.94;99365.12;4300673;33;33433;-72
2023/08/25 11:03:04;;;;;;;7.90;3.17;;;;;;;34.36;33.21;99359.59;4293744;33;34357;-71
2023/08/25 11:05:36;;;;;;;7.20;2.78;;;;;;;34.00;32.93;99356.84;4294414;33;32803;-73
2023/08/25 11:08:04;;;;;;;7.07;2.80;;;;;;;34.34;33.08;99347.94;4292487;33;34363;-74
2023/08/25 11:10:35;;;;;;;5.15;2.55;;;;;;;34.89;31.79;99354.44;4291276;33;34347;-73
2023/08/25 11:13:07;;;;;;;7.28;2.80;;;;;;;34.51;32.36;99360.41;4294800;33;33454;-71
2023/08/25 11:15:38;;;;;;;7.60;3.08;;;;;;;34.35;33.07;99357.91;4295850;33;34664;-71
2023/08/25 11:18:09;;;;;;;9.52;3.55;;;;;;;34.47;32.68;99353.72;4300983;32;33685;-70
2023/08/25 11:20:44;;;;;;;8.73;3.10;;;;;;;34.85;31.71;99351.41;4353888;32;32801;-71
2023/08/25 11:23:12;;;;;;;8.80;2.65;;;;;;;34.55;31.39;99349.59;4350440;32;33072;-73
2023/08/25 11:25:47;;;;;;;10.00;2.85;;;;;;;34.99;32.23;99351.63;4352021;32;34048;-72
2023/08/25 11:28:16;;;;;;;6.97;3.00;;;;;;;35.13;31.21;99343.53;4351187;32;33884;-72
2023/08/25 11:30:43;;;;;;;7.87;2.65;;;;;;;35.29;30.85;99350.69;4349656;32;34692;-73
2023/08/25 11:33:17;;;;;;;5.60;2.58;;;;;;;35.44;31.55;99345.03;4350876;32;33577;-73
2023/08/25 11:35:45;;;;;;;7.07;3.30;;;;;;;35.37;31.65;99347.28;4337288;32;33681;-73
2023/08/25 11:38:12;;;;;;;7.72;3.12;;;;;;;34.78;32.30;99348.13;4354415;32;35197;-73